Orangeville/Rosehill Airfield

COR8 · 安大略, 加拿大

罗盘
风向 的 风向 260°
风: 13 kt, 4 beaufort

添加一条跑道以查看侧风和逆风信息。

添置 跑道
0 ft 1.000 2.000 3.000 4.000 5.000
Cloud Cloud
FEW 2.400
Cloud Cloud Cloud Cloud Cloud Cloud
BKN 3.200
METAR CYYZ 281300Z 26013KT 15SM FEW024 BKN032 00/M04 A3004 RMK CF2SC5 PRESRR SLP183

METAR Orangeville/Rosehill Airfield - COR8

Orangeville/Rosehill Airfield是,加拿大中的小机场。 视场标高为1.500 ft。 该领域的国际民航组织标志是COR8.

这份报告是针对2023年1月28日 08:00, 当地时间在多倫多皮爾遜國際機場进行的。

机场观察

风向为260°,速度为13 kt。

可见度为15 mi。

有几云在2.400 ft的高度 和 碎云在3.200 ft的高度。 破损或更高的上限为3.200 ft。

温度为0 °C,阵风为-8 °C。 露点为-4 °C,相对湿度为75%。 海平面上的气压为30,04 inHg (QNH)。

白天

今天,太阳从07:41升起,在17:24降落。 这适用于Orangeville/Rosehill Airfield,世界夏令时可能有所不同。 当地时间与世界标准时间之间的时差为-5 小时。 当前,没有夏令时有效。

公司介绍

我们没有关于这个机场的公司信息。

体会

到Vliegles.nl去找飞行课程,跳伞和其他飞行体验。 浏览页面,了解Orangeville/Rosehill Airfield附近所有可用的活动。 你也可以使用搜索功能来寻找你所在地附近的特定飞行课程、跳伞或其他飞行体验。

乌云

2.400 ft FEW 几云
3.200 ft BKN 碎云

温度 & 天气

温度 0 °C
露点 -4 °C
相对湿度 75%
风寒 -8 °C
Kp-index 2 (0-9)

评论

PRESRR气压迅速上升
SLP183海平面压力为30,07 inHg (30,07 inHg)
CF2SC5

白天

日出
07:39
中午
12:31
日落
17:23 (8:44)

小工具

你想在你的网站上有一个关于Orangeville/Rosehill Airfield的当前航空天气(METAR)的小部件吗?

显示HTML代码

我们和第三方通过cookies跟踪您在我们网站上的互联网行为。如果你继续,我们认为你同意我们的饼干政策